Time;durP1;ratioP1;P1;durP2;ratioP2;P2;SDS_P1;SDS_P2;PMS_P1;PMS_P2;Temp;Humidity;BMP_temperature;BMP_pressure;BME280_temperature;BME280_humidity;BME280_pressure;Samples;Min_cycle;Max_cycle;Signal;HPM_P1;HPM_P2
2022/09/09 00:01:31;;;;;;;5.97;2.22;;;15.60;88.80;;;;;;4983038;28;20038;-72
2022/09/09 00:04:00;;;;;;;7.72;2.55;;;15.50;88.80;;;;;;4982231;28;20501;-72
2022/09/09 00:06:33;;;;;;;7.63;2.40;;;15.50;88.90;;;;;;4984355;28;20049;-71
2022/09/09 00:09:07;;;;;;;5.15;2.10;;;15.50;88.90;;;;;;4982989;28;20038;-72
2022/09/09 00:12:04;;;;;;;8.30;2.55;;;15.50;88.90;;;;;;4981339;28;20061;-72
2022/09/09 00:14:45;;;;;;;6.72;2.20;;;15.50;88.90;;;;;;4979879;28;20395;-71
2022/09/09 00:17:33;;;;;;;5.47;1.90;;;15.50;88.90;;;;;;4984892;28;20034;-72
2022/09/09 00:20:32;;;;;;;4.25;1.92;;;15.50;88.80;;;;;;4979322;28;20050;-72
2022/09/09 00:23:06;;;;;;;6.22;2.42;;;15.50;88.70;;;;;;4973905;28;20045;-72
2022/09/09 00:25:34;;;;;;;5.63;1.95;;;15.50;88.60;;;;;;4963372;28;20030;-73
2022/09/09 00:27:59;;;;;;;5.90;2.05;;;15.40;88.80;;;;;;4961029;28;20046;-72
2022/09/09 00:30:31;;;;;;;8.15;2.33;;;15.40;88.60;;;;;;4985083;28;20061;-73
2022/09/09 00:33:04;;;;;;;6.82;2.25;;;15.40;88.70;;;;;;4981560;28;20070;-71
2022/09/09 00:35:36;;;;;;;5.30;2.10;;;15.40;88.90;;;;;;4983509;28;20038;-72
2022/09/09 00:38:15;;;;;;;8.02;2.05;;;15.40;88.90;;;;;;4984307;28;20467;-72
2022/09/09 00:41:07;;;;;;;6.90;2.22;;;15.40;88.80;;;;;;4979104;28;20042;-72
2022/09/09 00:43:36;;;;;;;6.30;2.65;;;15.50;88.90;;;;;;4978478;28;20113;-72
2022/09/09 00:46:34;;;;;;;6.65;2.30;;;15.50;88.70;;;;;;4984127;28;20117;-72
2022/09/09 00:49:24;;;;;;;4.40;1.90;;;15.50;88.80;;;;;;4980828;28;20453;-72
2022/09/09 00:52:20;;;;;;;7.18;2.00;;;15.50;88.50;;;;;;4983915;28;20053;-72
2022/09/09 00:55:16;;;;;;;6.97;1.98;;;15.50;88.10;;;;;;4980525;28;20635;-72
2022/09/09 00:57:42;;;;;;;8.82;2.03;;;15.50;88.10;;;;;;4958439;28;20098;-71
2022/09/09 01:00:29;;;;;;;7.15;2.20;;;15.50;88.10;;;;;;4962437;28;20026;-72
2022/09/09 01:03:05;;;;;;;6.50;1.90;;;15.50;88.00;;;;;;4963935;28;20047;-72
2022/09/09 01:05:46;;;;;;;7.07;2.10;;;15.50;87.90;;;;;;4968969;28;20039;-72
2022/09/09 01:08:19;;;;;;;7.00;2.30;;;15.50;88.00;;;;;;4961867;28;20042;-71
2022/09/09 01:10:50;;;;;;;6.35;2.13;;;15.50;88.00;;;;;;4962647;28;20066;-71
2022/09/09 01:13:25;;;;;;;6.68;2.22;;;15.40;88.00;;;;;;4963030;28;20410;-72
2022/09/09 01:15:53;;;;;;;6.78;1.85;;;15.30;88.10;;;;;;4961146;28;20395;-72
2022/09/09 01:18:23;;;;;;;8.05;2.20;;;15.40;88.20;;;;;;4959024;28;20332;-73
2022/09/09 01:21:04;;;;;;;7.18;2.17;;;15.30;88.30;;;;;;4963639;28;20070;-72
2022/09/09 01:24:09;;;;;;;9.10;2.30;;;15.30;88.40;;;;;;4959544;28;20478;-73
2022/09/09 01:26:59;;;;;;;8.55;2.20;;;15.30;88.30;;;;;;4979333;28;20158;-72
2022/09/09 01:29:25;;;;;;;8.43;1.83;;;15.30;88.20;;;;;;4980614;28;20045;-73
2022/09/09 01:31:59;;;;;;;7.13;2.33;;;15.30;88.20;;;;;;4982290;28;20387;-72
2022/09/09 01:34:28;;;;;;;;;;;15.30;88.20;;;;;;4981916;28;20105;-72
2022/09/09 01:37:07;;;;;;;6.63;2.50;;;15.20;88.40;;;;;;4982325;28;19918;-72
2022/09/09 01:39:35;;;;;;;7.28;2.20;;;15.30;88.30;;;;;;4986214;28;20042;-72
2022/09/09 01:42:02;;;;;;;9.52;2.40;;;15.30;88.50;;;;;;4985446;28;20034;-73
2022/09/09 01:44:30;;;;;;;10.55;2.42;;;15.20;88.40;;;;;;4985066;28;20030;-72
2022/09/09 01:46:56;;;;;;;9.30;2.92;;;15.20;88.60;;;;;;4986215;28;20077;-72
2022/09/09 01:49:22;;;;;;;10.10;2.67;;;15.20;88.60;;;;;;4987407;28;20042;-73
2022/09/09 01:51:54;;;;;;;8.13;2.80;;;15.20;88.70;;;;;;4983886;28;20050;-72
2022/09/09 01:54:23;;;;;;;8.90;2.50;;;15.20;88.70;;;;;;4985360;28;20043;-73
2022/09/09 01:57:15;;;;;;;13.63;2.78;;;15.20;88.70;;;;;;4983836;28;20049;-72
2022/09/09 01:59:59;;;;;;;7.45;2.42;;;15.20;88.70;;;;;;4976398;28;20038;-72
2022/09/09 02:02:46;;;;;;;6.40;2.35;;;15.20;88.90;;;;;;4984406;28;20053;-73
2022/09/09 02:05:41;;;;;;;9.80;2.78;;;15.20;88.90;;;;;;4985575;28;20521;-74
2022/09/09 02:08:24;;;;;;;9.45;2.58;;;15.20;89.00;;;;;;4987216;28;20105;-72
2022/09/09 02:11:22;;;;;;;8.85;2.78;;;15.30;89.00;;;;;;4985818;28;20072;-72
2022/09/09 02:13:51;;;;;;;9.93;2.60;;;15.30;88.90;;;;;;4965851;28;20053;-73
2022/09/09 02:16:49;;;;;;;10.65;3.03;;;15.30;88.90;;;;;;4968208;28;20058;-73
2022/09/09 02:19:26;;;;;;;9.80;2.55;;;15.40;89.00;;;;;;4973440;28;20101;-73
2022/09/09 02:21:55;;;;;;;10.32;2.83;;;15.50;89.00;;;;;;4962065;28;20031;-73
2022/09/09 02:24:21;;;;;;;10.02;3.25;;;15.40;88.70;;;;;;4961660;28;20050;-74
2022/09/09 02:26:52;;;;;;;9.25;3.10;;;15.50;88.70;;;;;;4960455;28;20035;-72
2022/09/09 02:29:29;;;;;;;11.18;2.63;;;15.50;88.60;;;;;;4974610;28;20117;-72
2022/09/09 02:32:02;;;;;;;9.75;2.80;;;15.50;88.70;;;;;;4972838;28;20053;-72
2022/09/09 02:34:30;;;;;;;8.85;2.72;;;15.50;88.60;;;;;;4978488;28;20409;-74
2022/09/09 02:36:59;;;;;;;10.95;2.58;;;15.50;88.50;;;;;;4991749;28;20043;-73
2022/09/09 02:39:25;;;;;;;7.53;2.45;;;15.40;88.60;;;;;;4978167;28;20080;-73
2022/09/09 02:41:52;;;;;;;14.45;3.40;;;15.40;88.70;;;;;;4985497;28;20030;-72
2022/09/09 02:44:19;;;;;;;10.38;3.13;;;15.40;88.80;;;;;;4984013;28;20041;-72
2022/09/09 02:47:12;;;;;;;10.45;2.83;;;15.40;88.80;;;;;;4985929;28;20732;-72
2022/09/09 02:50:03;;;;;;;9.73;2.50;;;15.40;88.70;;;;;;4964840;28;20041;-73
2022/09/09 02:52:37;;;;;;;8.73;2.38;;;15.40;88.70;;;;;;4964398;28;20045;-73
2022/09/09 02:55:12;;;;;;;10.73;2.50;;;15.40;88.70;;;;;;4961814;28;20031;-72
2022/09/09 02:57:38;;;;;;;10.98;3.30;;;15.40;88.90;;;;;;4969989;28;20089;-73
2022/09/09 03:00:05;;;;;;;11.02;2.88;;;15.30;88.80;;;;;;4977045;28;20054;-73
2022/09/09 03:02:30;;;;;;;10.95;3.35;;;15.30;88.90;;;;;;4964741;28;20028;-72
2022/09/09 03:04:56;;;;;;;12.25;3.20;;;15.30;89.00;;;;;;4963676;28;20043;-73
2022/09/09 03:07:22;;;;;;;12.77;3.22;;;15.30;88.90;;;;;;4960547;28;20035;-72
2022/09/09 03:09:48;;;;;;;14.10;2.88;;;15.30;89.10;;;;;;4964566;28;20343;-72
2022/09/09 03:12:14;;;;;;;10.30;2.92;;;15.30;88.90;;;;;;4967600;28;20082;-72
2022/09/09 03:14:40;;;;;;;14.27;3.30;;;15.30;89.00;;;;;;4970719;28;20047;-72
2022/09/09 03:17:05;;;;;;;10.68;2.88;;;15.30;89.00;;;;;;4965972;28;20375;-73
2022/09/09 03:19:31;;;;;;;10.38;2.95;;;15.30;89.00;;;;;;4984874;28;20032;-72
2022/09/09 03:21:58;;;;;;;10.02;3.15;;;15.30;88.90;;;;;;4990991;28;20631;-72
2022/09/09 03:24:24;;;;;;;10.32;3.58;;;15.30;89.00;;;;;;4981034;28;20530;-72
2022/09/09 03:26:50;;;;;;;14.88;3.70;;;15.40;88.90;;;;;;4986956;28;20033;-72
2022/09/09 03:29:17;;;;;;;12.65;3.75;;;15.30;88.90;;;;;;4985557;28;20036;-73
2022/09/09 03:31:43;;;;;;;11.88;3.03;;;15.40;88.80;;;;;;4985030;28;20035;-72
2022/09/09 03:34:09;;;;;;;11.23;3.22;;;15.50;88.70;;;;;;4985638;28;20486;-72
2022/09/09 03:36:35;;;;;;;16.73;3.45;;;15.40;88.60;;;;;;4983817;28;20046;-72
2022/09/09 03:39:02;;;;;;;11.93;3.33;;;15.40;88.40;;;;;;4987230;28;20054;-72
2022/09/09 03:41:29;;;;;;;12.10;3.42;;;15.40;88.50;;;;;;4984784;28;20510;-73
2022/09/09 03:43:55;;;;;;;14.52;3.13;;;15.50;88.50;;;;;;4985311;28;20344;-72
2022/09/09 03:46:22;;;;;;;10.60;3.47;;;15.50;88.40;;;;;;4983741;28;20133;-73
2022/09/09 03:48:48;;;;;;;9.38;3.08;;;15.50;88.40;;;;;;4983396;28;20031;-72
2022/09/09 03:51:15;;;;;;;12.57;2.90;;;15.50;88.30;;;;;;4981742;28;20038;-72
2022/09/09 03:53:41;;;;;;;15.98;3.10;;;15.50;88.30;;;;;;4982693;28;20425;-72
2022/09/09 03:56:07;;;;;;;12.63;3.28;;;15.50;88.20;;;;;;4982194;28;20034;-72
2022/09/09 03:58:37;;;;;;;13.68;3.53;;;15.50;88.10;;;;;;4983497;28;20035;-72
2022/09/09 04:01:17;;;;;;;11.13;3.30;;;15.50;88.10;;;;;;4983087;28;20031;-72
2022/09/09 04:03:44;;;;;;;11.20;3.05;;;15.50;88.20;;;;;;4982493;28;20413;-72
2022/09/09 04:06:14;;;;;;;11.65;3.42;;;15.50;88.30;;;;;;4994292;28;20027;-72
2022/09/09 04:08:41;;;;;;;10.35;3.03;;;15.50;88.30;;;;;;4983357;28;20350;-72
2022/09/09 04:11:07;;;;;;;14.55;4.00;;;15.50;88.30;;;;;;4984245;28;20144;-72
2022/09/09 04:13:38;;;;;;;14.43;3.25;;;15.50;88.40;;;;;;4983267;28;20137;-73
2022/09/09 04:16:05;;;;;;;12.15;3.35;;;15.50;88.40;;;;;;4982565;28;20439;-72
2022/09/09 04:18:31;;;;;;;16.23;3.65;;;15.50;88.40;;;;;;4981415;28;20478;-72
2022/09/09 04:20:57;;;;;;;14.25;4.15;;;15.50;88.30;;;;;;4983567;28;20034;-72
2022/09/09 04:23:25;;;;;;;13.40;3.25;;;15.50;88.30;;;;;;4982341;28;20030;-72
2022/09/09 04:25:53;;;;;;;13.27;3.85;;;15.50;88.30;;;;;;4980420;28;20066;-73
2022/09/09 04:28:20;;;;;;;15.85;3.50;;;15.50;88.20;;;;;;4980048;28;20108;-72
2022/09/09 04:30:46;;;;;;;11.25;3.38;;;15.40;88.20;;;;;;4978368;28;20129;-72
2022/09/09 04:33:13;;;;;;;12.60;3.28;;;15.50;88.30;;;;;;4976174;28;20031;-73
2022/09/09 04:35:43;;;;;;;13.10;3.72;;;15.50;88.30;;;;;;4974234;28;20497;-72
2022/09/09 04:38:09;;;;;;;15.73;3.78;;;15.50;88.10;;;;;;4975024;28;20039;-72
2022/09/09 04:40:35;;;;;;;11.57;3.20;;;15.50;88.20;;;;;;4981493;28;20114;-72
2022/09/09 04:43:02;;;;;;;11.65;3.55;;;15.50;88.20;;;;;;4980503;28;20030;-73
2022/09/09 04:45:28;;;;;;;12.93;3.25;;;15.50;88.20;;;;;;4974581;28;20034;-72
2022/09/09 04:47:54;;;;;;;12.13;3.63;;;15.50;88.10;;;;;;4978454;28;20030;-72
2022/09/09 04:50:20;;;;;;;15.80;3.88;;;15.50;88.20;;;;;;4979155;28;20120;-73
2022/09/09 04:52:45;;;;;;;12.02;3.67;;;15.60;88.20;;;;;;4979407;28;20041;-72
2022/09/09 04:55:12;;;;;;;16.08;3.53;;;15.60;88.20;;;;;;4974736;28;20378;-73
2022/09/09 04:57:38;;;;;;;15.07;3.47;;;15.60;88.20;;;;;;4983373;28;20486;-72
2022/09/09 05:00:06;;;;;;;12.48;3.88;;;15.60;88.30;;;;;;4979456;28;20071;-74
2022/09/09 05:02:32;;;;;;;15.70;3.55;;;15.60;88.40;;;;;;4974266;28;20033;-73
2022/09/09 05:04:58;;;;;;;17.95;3.90;;;15.60;88.20;;;;;;4976461;28;20039;-72
2022/09/09 05:07:23;;;;;;;15.80;4.57;;;15.60;88.40;;;;;;4975561;28;20318;-72
2022/09/09 05:09:49;;;;;;;14.95;4.05;;;15.60;88.40;;;;;;4983678;28;20106;-73
2022/09/09 05:12:19;;;;;;;12.80;3.63;;;15.60;88.60;;;;;;4981369;28;20034;-72
2022/09/09 05:14:44;;;;;;;14.43;3.83;;;15.60;88.80;;;;;;4981936;28;20045;-73
2022/09/09 05:17:10;;;;;;;13.07;3.65;;;15.60;88.90;;;;;;4979083;28;20034;-73
2022/09/09 05:19:36;;;;;;;16.98;4.10;;;15.60;88.90;;;;;;4976799;28;20067;-73
2022/09/09 05:22:02;;;;;;;14.93;4.55;;;15.60;89.20;;;;;;4982407;28;20054;-72
2022/09/09 05:24:29;;;;;;;13.20;4.30;;;15.60;89.30;;;;;;4981245;28;20439;-73
2022/09/09 05:26:57;;;;;;;17.60;4.22;;;15.60;89.30;;;;;;4985261;28;20041;-72
2022/09/09 05:29:23;;;;;;;14.23;3.65;;;15.60;89.30;;;;;;4980350;28;20067;-72
2022/09/09 05:31:49;;;;;;;15.82;3.85;;;15.60;89.10;;;;;;4983431;28;20126;-72
2022/09/09 05:34:14;;;;;;;15.45;4.50;;;15.70;89.00;;;;;;4986267;28;20077;-71
2022/09/09 05:36:40;;;;;;;15.38;4.20;;;15.70;89.00;;;;;;4986197;28;20500;-71
2022/09/09 05:39:06;;;;;;;13.13;3.75;;;15.70;88.90;;;;;;4982991;28;20426;-72
2022/09/09 05:41:32;;;;;;;15.40;3.75;;;15.70;89.20;;;;;;4992216;28;20108;-72
2022/09/09 05:44:01;;;;;;;19.92;4.22;;;15.70;89.30;;;;;;4985176;28;20047;-71
2022/09/09 05:46:27;;;;;;;15.88;4.30;;;15.70;89.30;;;;;;4965588;28;20035;-71
2022/09/09 05:48:53;;;;;;;16.83;4.53;;;15.60;89.50;;;;;;4968140;28;20536;-71
2022/09/09 05:51:21;;;;;;;16.00;4.28;;;15.60;89.50;;;;;;4976845;28;20047;-72
2022/09/09 05:53:48;;;;;;;12.70;4.07;;;15.60;89.80;;;;;;4981583;28;20034;-71
2022/09/09 05:56:17;;;;;;;15.20;4.25;;;15.60;89.80;;;;;;4981486;28;20038;-71
2022/09/09 05:58:43;;;;;;;16.60;4.50;;;15.60;89.90;;;;;;4980047;28;20482;-72
2022/09/09 06:01:15;;;;;;;17.15;4.50;;;15.60;90.00;;;;;;4979931;28;20038;-71
2022/09/09 06:03:42;;;;;;;16.40;3.90;;;15.60;90.10;;;;;;4983222;28;20081;-71
2022/09/09 06:06:15;;;;;;;13.25;4.22;;;15.60;90.10;;;;;;4980113;28;20039;-72
2022/09/09 06:08:46;;;;;;;12.80;4.25;;;15.60;89.90;;;;;;4980773;28;20042;-71
2022/09/09 06:11:17;;;;;;;14.77;3.63;;;15.60;89.90;;;;;;4978593;28;20022;-74
2022/09/09 06:13:43;;;;;;;14.85;3.83;;;15.70;89.90;;;;;;4978278;28;20074;-72
2022/09/09 06:16:11;;;;;;;14.02;3.92;;;15.70;89.90;;;;;;4986926;28;20050;-72
2022/09/09 06:18:38;;;;;;;13.50;3.88;;;15.80;89.70;;;;;;4975984;28;20038;-72
2022/09/09 06:21:06;;;;;;;13.73;3.30;;;15.80;89.70;;;;;;4980105;28;20131;-72
2022/09/09 06:23:36;;;;;;;14.82;3.85;;;15.90;89.50;;;;;;4979713;28;20026;-72
2022/09/09 06:26:11;;;;;;;13.18;3.80;;;16.00;89.40;;;;;;4974502;28;20042;-72
2022/09/09 06:28:37;;;;;;;18.50;4.35;;;15.90;89.00;;;;;;4971743;28;20034;-71
2022/09/09 06:31:11;;;;;;;14.07;3.75;;;15.90;89.10;;;;;;4981156;28;20483;-72
2022/09/09 06:33:40;;;;;;;12.63;3.42;;;15.90;88.90;;;;;;4984064;28;20173;-72
2022/09/09 06:36:10;;;;;;;14.23;3.83;;;15.90;88.70;;;;;;4979603;28;20651;-71
2022/09/09 06:38:36;;;;;;;14.68;3.88;;;16.00;88.60;;;;;;4983759;28;20851;-72
2022/09/09 06:41:02;;;;;;;14.95;4.07;;;16.00;88.70;;;;;;4976382;28;20035;-72
2022/09/09 06:43:28;;;;;;;16.15;3.95;;;16.10;88.60;;;;;;4972857;28;20118;-72
2022/09/09 06:45:58;;;;;;;13.13;3.92;;;16.10;88.20;;;;;;4977255;28;20034;-73
2022/09/09 06:48:25;;;;;;;12.82;3.75;;;16.20;88.20;;;;;;4977266;28;20069;-72
2022/09/09 06:51:01;;;;;;;15.50;4.03;;;16.20;87.80;;;;;;4982793;28;20651;-72
2022/09/09 06:53:27;;;;;;;11.32;3.55;;;16.30;87.90;;;;;;4986560;28;20041;-72
2022/09/09 06:55:53;;;;;;;12.80;3.55;;;16.40;87.50;;;;;;4985237;28;20034;-72
2022/09/09 06:58:18;;;;;;;11.55;3.80;;;16.40;87.40;;;;;;4984233;28;20504;-72
2022/09/09 07:00:44;;;;;;;11.20;3.38;;;16.50;87.40;;;;;;4988850;28;20044;-72
2022/09/09 07:03:10;;;;;;;15.15;4.00;;;16.50;87.30;;;;;;4984612;28;20035;-75
2022/09/09 07:05:36;;;;;;;14.10;4.35;;;16.50;87.40;;;;;;4987723;28;20045;-74
2022/09/09 07:08:02;;;;;;;12.00;3.72;;;16.40;87.40;;;;;;4982673;28;20030;-74
2022/09/09 07:10:28;;;;;;;13.63;3.90;;;16.40;87.70;;;;;;4975099;28;20394;-74
2022/09/09 07:12:54;;;;;;;13.85;3.63;;;16.40;87.90;;;;;;4983620;28;20057;-74
2022/09/09 07:15:21;;;;;;;16.38;3.78;;;16.40;87.70;;;;;;4977777;28;20045;-73
2022/09/09 07:17:48;;;;;;;14.43;3.60;;;16.40;87.50;;;;;;4980772;28;20165;-74
2022/09/09 07:20:14;;;;;;;14.88;3.95;;;16.50;87.80;;;;;;4981473;28;20461;-74
2022/09/09 07:22:40;;;;;;;10.48;3.95;;;16.50;88.10;;;;;;4979671;28;20042;-75
2022/09/09 07:25:06;;;;;;;13.57;3.80;;;16.50;87.90;;;;;;4979426;28;20364;-74
2022/09/09 07:27:32;;;;;;;16.70;3.95;;;16.40;87.50;;;;;;4983448;28;20080;-74
2022/09/09 07:29:58;;;;;;;13.25;3.88;;;16.40;87.80;;;;;;4985090;28;20066;-73
2022/09/09 07:32:25;;;;;;;14.38;3.63;;;16.30;88.00;;;;;;4983703;28;20027;-74
2022/09/09 07:34:51;;;;;;;14.75;4.30;;;16.30;88.00;;;;;;4982541;28;20100;-74
2022/09/09 07:37:17;;;;;;;14.52;4.30;;;16.20;88.30;;;;;;4983245;28;20039;-74
2022/09/09 07:39:43;;;;;;;14.02;4.18;;;16.20;88.50;;;;;;4980921;28;20042;-74
2022/09/09 07:42:11;;;;;;;10.80;4.07;;;16.10;88.80;;;;;;4986107;28;20474;-74
2022/09/09 07:44:39;;;;;;;11.65;4.25;;;16.10;88.80;;;;;;4983546;28;20041;-74
2022/09/09 07:47:05;;;;;;;14.95;4.38;;;16.10;89.00;;;;;;4974550;28;21081;-73
2022/09/09 07:49:32;;;;;;;13.45;4.40;;;16.00;89.20;;;;;;4983816;28;20030;-74
2022/09/09 07:51:57;;;;;;;11.48;3.70;;;16.10;89.30;;;;;;4984925;28;20506;-74
2022/09/09 07:54:23;;;;;;;12.80;3.33;;;16.00;89.30;;;;;;4983188;28;20068;-75
2022/09/09 07:56:49;;;;;;;13.25;3.80;;;16.00;89.40;;;;;;4981776;28;20049;-75
2022/09/09 07:59:16;;;;;;;12.98;4.00;;;16.00;89.60;;;;;;4983655;28;20092;-75
2022/09/09 08:01:53;;;;;;;12.32;3.78;;;16.00;89.50;;;;;;4976038;28;20039;-75
2022/09/09 08:04:20;;;;;;;10.48;3.53;;;16.10;89.50;;;;;;4980999;28;20398;-74
2022/09/09 08:06:52;;;;;;;12.73;4.10;;;16.10;89.50;;;;;;4981838;28;20042;-75
2022/09/09 08:09:19;;;;;;;13.23;3.90;;;16.10;89.30;;;;;;4984415;28;20129;-76
2022/09/09 08:11:45;;;;;;;10.73;3.05;;;16.10;89.10;;;;;;4985564;28;20072;-75
2022/09/09 08:14:12;;;;;;;10.85;3.92;;;16.20;89.10;;;;;;4976541;28;20074;-74
2022/09/09 08:16:41;;;;;;;12.82;3.85;;;16.20;89.10;;;;;;4981812;28;20026;-75
2022/09/09 08:19:07;;;;;;;9.35;3.10;;;16.20;89.00;;;;;;4979878;28;20118;-76
2022/09/09 08:21:36;;;;;;;11.35;3.42;;;16.20;88.90;;;;;;4972989;28;20054;-76
2022/09/09 08:24:04;;;;;;;11.07;3.38;;;16.20;88.80;;;;;;4975658;28;20038;-76
2022/09/09 08:26:42;;;;;;;11.98;3.83;;;16.20;89.10;;;;;;4977423;28;20045;-75
2022/09/09 08:29:11;;;;;;;9.43;3.20;;;16.20;89.00;;;;;;4978824;28;20086;-75
2022/09/09 08:31:39;;;;;;;9.93;3.17;;;16.30;88.80;;;;;;4976644;28;20034;-75
2022/09/09 08:34:07;;;;;;;14.52;3.92;;;16.30;88.90;;;;;;4977695;28;20109;-76
2022/09/09 08:36:42;;;;;;;9.65;3.42;;;16.30;88.90;;;;;;4980068;28;20066;-76
2022/09/09 08:39:09;;;;;;;12.75;3.38;;;16.20;88.90;;;;;;4981695;28;20031;-77
2022/09/09 08:41:55;;;;;;;12.73;3.35;;;16.20;88.90;;;;;;4987713;28;20106;-75
2022/09/09 08:44:51;;;;;;;10.85;3.38;;;16.20;89.00;;;;;;4988359;28;20117;-77
2022/09/09 08:47:19;;;;;;;;;;;16.20;89.10;;;;;;4991539;28;20089;-77
2022/09/09 08:50:27;;;;;;;12.65;3.55;;;16.20;89.30;;;;;;4986714;28;19920;-76
2022/09/09 08:53:20;;;;;;;14.23;4.18;;;16.30;89.10;;;;;;4963402;28;20049;-75
2022/09/09 08:55:52;;;;;;;11.82;3.65;;;16.40;89.10;;;;;;4981022;28;20031;-75
2022/09/09 08:58:26;;;;;;;14.30;3.60;;;16.50;88.90;;;;;;4977644;28;20495;-75
2022/09/09 09:01:08;;;;;;;10.40;3.13;;;16.50;88.60;;;;;;4977953;28;20046;-75
2022/09/09 09:04:19;;;;;;;9.27;3.25;;;16.60;88.30;;;;;;4975649;28;20043;-76
2022/09/09 09:07:00;;;;;;;12.77;3.38;;;16.70;88.10;;;;;;4979565;28;20054;-75
2022/09/09 09:09:45;;;;;;;11.00;3.35;;;16.80;87.70;;;;;;4985113;28;20038;-74
2022/09/09 09:12:22;;;;;;;;;;;17.00;87.60;;;;;;4976081;28;20105;-75
2022/09/09 09:14:48;;;;;;;10.90;3.25;;;17.10;87.60;;;;;;4981988;28;19953;-74
2022/09/09 09:17:19;;;;;;;8.30;2.80;;;17.30;87.10;;;;;;4982411;28;20066;-76
2022/09/09 09:19:46;;;;;;;7.10;2.85;;;17.40;86.80;;;;;;4965200;28;20035;-75
2022/09/09 09:22:36;;;;;;;11.00;3.03;;;17.30;86.00;;;;;;4976244;28;20042;-75
2022/09/09 09:25:20;;;;;;;7.28;2.45;;;17.40;86.10;;;;;;4981572;28;20039;-76
2022/09/09 09:28:01;;;;;;;9.05;2.83;;;17.50;86.00;;;;;;4982555;28;20052;-76
2022/09/09 09:30:34;;;;;;;8.95;3.13;;;17.50;85.60;;;;;;4989648;28;20042;-75
2022/09/09 09:33:13;;;;;;;11.57;3.17;;;17.50;85.20;;;;;;4984056;28;20049;-77
2022/09/09 09:35:39;;;;;;;10.65;2.58;;;17.50;85.30;;;;;;4979781;28;20544;-75
2022/09/09 09:38:19;;;;;;;9.25;2.88;;;17.40;85.30;;;;;;4973643;28;20587;-75
2022/09/09 09:40:58;;;;;;;7.65;2.97;;;17.50;85.70;;;;;;4979100;28;20077;-75
2022/09/09 09:43:35;;;;;;;8.27;2.63;;;17.40;85.80;;;;;;4981651;28;20046;-75
2022/09/09 09:46:04;;;;;;;9.85;3.05;;;17.50;85.40;;;;;;4983043;28;20031;-75
2022/09/09 09:48:30;;;;;;;8.38;2.90;;;17.50;85.30;;;;;;4982555;28;20098;-78
2022/09/09 09:51:02;;;;;;;9.15;2.40;;;17.40;85.10;;;;;;4980024;28;20034;-76
2022/09/09 09:53:33;;;;;;;7.47;2.47;;;17.50;85.40;;;;;;4983328;28;20027;-76
2022/09/09 09:56:02;;;;;;;9.73;3.00;;;17.50;85.10;;;;;;4981421;28;20026;-77
2022/09/09 09:58:33;;;;;;;7.35;2.63;;;17.60;85.20;;;;;;4983703;28;20081;-77
2022/09/09 10:01:00;;;;;;;7.47;2.60;;;17.60;84.40;;;;;;4985134;28;20426;-75
2022/09/09 10:03:27;;;;;;;8.98;2.45;;;17.70;84.20;;;;;;4983675;28;20042;-77
2022/09/09 10:05:53;;;;;;;5.85;2.50;;;17.80;83.70;;;;;;4989607;28;20045;-79
2022/09/09 10:08:20;;;;;;;9.63;2.50;;;17.70;83.80;;;;;;4989304;28;20092;-80
2022/09/09 10:11:14;;;;;;;7.38;2.50;;;17.70;83.80;;;;;;4972828;28;20065;-81
2022/09/09 10:13:54;;;;;;;6.07;2.70;;;17.80;83.70;;;;;;4967392;28;20521;-79
2022/09/09 10:16:54;;;;;;;8.35;2.17;;;17.90;83.50;;;;;;4971992;28;20039;-80
2022/09/09 10:19:37;;;;;;;5.57;2.28;;;18.00;83.10;;;;;;4992811;28;20050;-78
2022/09/09 10:22:18;;;;;;;11.27;2.78;;;18.40;82.40;;;;;;4995903;28;20435;-79
2022/09/09 10:24:56;;;;;;;7.53;2.30;;;18.50;81.40;;;;;;4990820;28;20047;-78
2022/09/09 10:27:46;;;;;;;7.05;2.00;;;18.60;81.10;;;;;;4993697;28;20057;-78
2022/09/09 10:30:20;;;;;;;8.07;2.53;;;18.60;80.40;;;;;;4984783;28;20030;-77
2022/09/09 10:33:06;;;;;;;8.77;2.22;;;18.60;80.40;;;;;;4988043;28;20043;-79
2022/09/09 10:35:38;;;;;;;8.52;2.45;;;18.50;80.50;;;;;;4979154;28;20043;-76
2022/09/09 10:38:17;;;;;;;7.63;2.28;;;18.30;81.40;;;;;;4981141;28;20058;-78
2022/09/09 10:40:56;;;;;;;8.45;2.50;;;18.40;81.20;;;;;;4978993;28;20043;-79
2022/09/09 10:44:06;;;;;;;7.32;2.28;;;18.40;80.90;;;;;;4978850;28;20759;-78
2022/09/09 10:47:13;;;;;;;6.22;2.30;;;18.40;81.50;;;;;;4964320;28;20048;-78
2022/09/09 10:50:13;;;;;;;7.35;2.42;;;18.50;81.70;;;;;;4975220;28;20050;-79
2022/09/09 10:52:44;;;;;;;7.72;2.15;;;18.60;80.70;;;;;;4990164;28;20046;-77
2022/09/09 10:55:19;;;;;;;6.13;2.42;;;18.90;80.40;;;;;;4961742;28;20112;-78
2022/09/09 10:57:48;;;;;;;7.22;2.20;;;19.40;78.60;;;;;;4958468;28;20055;-77
2022/09/09 11:00:19;;;;;;;6.10;1.90;;;19.60;77.80;;;;;;4956895;28;20439;-77
2022/09/09 11:03:04;;;;;;;7.72;2.60;;;19.80;77.10;;;;;;4960970;28;20031;-77
2022/09/09 11:05:43;;;;;;;7.07;1.95;;;20.00;76.40;;;;;;4975762;28;20133;-76
2022/09/09 11:08:14;;;;;;;9.65;2.30;;;20.30;75.90;;;;;;4978052;28;20494;-75
2022/09/09 11:11:01;;;;;;;9.25;2.40;;;20.50;75.60;;;;;;4977872;28;20039;-76
2022/09/09 11:13:45;;;;;;;8.75;2.17;;;20.50;75.20;;;;;;4981186;28;20054;-76
2022/09/09 11:16:31;;;;;;;7.88;2.05;;;20.80;74.10;;;;;;4978580;28;20145;-75
2022/09/09 11:19:36;;;;;;;6.68;1.90;;;21.00;72.60;;;;;;4979184;28;20149;-77
2022/09/09 11:22:23;;;;;;;5.88;1.95;;;20.80;71.40;;;;;;4955560;28;20038;-78
2022/09/09 11:25:15;;;;;;;6.70;1.75;;;20.80;73.50;;;;;;4961194;28;20468;-75
2022/09/09 11:27:49;;;;;;;5.43;1.77;;;20.60;73.30;;;;;;4957035;28;20524;-77
2022/09/09 11:30:50;;;;;;;4.75;1.80;;;20.50;73.40;;;;;;4957615;28;20813;-76
2022/09/09 11:33:30;;;;;;;5.13;1.77;;;20.10;73.70;;;;;;4959964;28;20990;-76
2022/09/09 11:36:24;;;;;;;6.18;1.80;;;20.00;74.60;;;;;;4959638;28;20146;-77
2022/09/09 11:39:16;;;;;;;4.67;1.60;;;20.00;74.60;;;;;;4964817;28;20038;-75
2022/09/09 11:41:41;;;;;;;4.97;1.50;;;20.10;75.20;;;;;;4981577;28;20031;-75
2022/09/09 11:44:13;;;;;;;6.00;1.83;;;20.40;74.80;;;;;;4964805;28;20392;-76
2022/09/09 11:46:41;;;;;;;3.97;1.60;;;20.60;73.30;;;;;;4960645;28;20360;-74
2022/09/09 11:49:41;;;;;;;6.07;2.00;;;20.60;73.20;;;;;;4969169;28;20046;-77
2022/09/09 11:52:21;;;;;;;7.05;1.90;;;20.80;74.10;;;;;;4984696;28;20033;-78
2022/09/09 11:54:49;;;;;;;5.55;1.80;;;21.20;73.10;;;;;;4985499;28;20050;-77
2022/09/09 11:57:43;;;;;;;6.13;1.70;;;21.10;72.40;;;;;;4986849;28;20077;-80
2022/09/09 12:00:40;;;;;;;5.00;1.70;;;21.00;72.60;;;;;;4982301;28;20066;-77
2022/09/09 12:03:26;;;;;;;7.07;1.80;;;21.40;72.10;;;;;;4986183;28;20046;-78
2022/09/09 12:05:53;;;;;;;5.40;1.70;;;21.40;70.70;;;;;;4987584;28;20053;-78
2022/09/09 12:08:27;;;;;;;8.68;1.70;;;21.00;71.10;;;;;;4985177;28;20061;-77
2022/09/09 12:10:56;;;;;;;6.68;1.95;;;20.90;72.40;;;;;;4962331;28;20133;-77
2022/09/09 12:13:25;;;;;;;3.85;1.67;;;20.70;72.60;;;;;;4969561;28;20055;-77
2022/09/09 12:15:59;;;;;;;7.85;2.05;;;20.60;73.40;;;;;;4986225;28;20104;-76
2022/09/09 12:18:36;;;;;;;11.20;2.05;;;20.60;73.10;;;;;;4981245;28;20054;-77
2022/09/09 12:21:43;;;;;;;6.57;1.70;;;20.60;73.00;;;;;;4988617;28;20681;-77
2022/09/09 12:24:20;;;;;;;5.93;2.10;;;20.50;73.90;;;;;;4985784;28;20081;-76
2022/09/09 12:27:24;;;;;;;6.20;2.00;;;20.40;74.20;;;;;;4983630;28;20478;-76
2022/09/09 12:30:02;;;;;;;6.85;2.10;;;20.40;74.80;;;;;;4978927;28;20084;-77
2022/09/09 12:32:29;;;;;;;19.08;2.72;;;20.50;74.00;;;;;;4978201;28;20061;-75
2022/09/09 12:35:17;;;;;;;7.28;2.25;;;20.40;74.60;;;;;;4985119;28;20041;-76
2022/09/09 12:37:49;;;;;;;5.13;1.75;;;20.40;75.20;;;;;;4958173;28;20458;-77
2022/09/09 12:40:22;;;;;;;3.67;1.60;;;20.50;74.20;;;;;;4963848;28;20035;-76
2022/09/09 12:42:48;;;;;;;5.70;1.80;;;20.70;73.80;;;;;;4967000;28;20094;-77
2022/09/09 12:45:20;;;;;;;5.80;1.90;;;20.80;73.50;;;;;;4986002;28;20034;-77
2022/09/09 12:47:51;;;;;;;8.88;2.50;;;21.00;72.50;;;;;;4987491;28;20038;-76
2022/09/09 12:50:27;;;;;;;9.20;2.40;;;21.10;73.20;;;;;;4984121;28;20034;-76
2022/09/09 12:52:59;;;;;;;10.25;2.28;;;21.10;71.90;;;;;;4984504;28;20498;-76
2022/09/09 12:55:30;;;;;;;7.35;1.90;;;21.10;72.30;;;;;;4989321;28;20046;-75
2022/09/09 12:57:57;;;;;;;7.60;1.77;;;20.90;71.50;;;;;;4977455;28;20446;-76
2022/09/09 13:00:26;;;;;;;19.42;3.22;;;20.80;72.50;;;;;;4983472;28;20065;-74
2022/09/09 13:03:02;;;;;;;9.75;2.50;;;20.90;72.50;;;;;;4983813;28;20113;-75
2022/09/09 13:05:36;;;;;;;6.88;2.15;;;21.00;71.90;;;;;;4964392;28;20045;-75
2022/09/09 13:08:20;;;;;;;11.93;2.53;;;20.80;71.80;;;;;;4966295;28;20045;-76
2022/09/09 13:11:07;;;;;;;5.85;1.77;;;20.90;72.20;;;;;;4984072;28;20039;-76
2022/09/09 13:13:39;;;;;;;5.10;1.98;;;21.00;71.90;;;;;;4984277;28;20049;-76
2022/09/09 13:16:08;;;;;;;7.20;1.70;;;21.10;71.60;;;;;;4982663;28;20034;-76